sensor_id;sensor_type;location;lat;lon;timestamp;P1;durP1;ratioP1;P2;durP2;ratioP2
26478;SDS011;14163;-26.142;27.992;2023-04-03T02:06:23;8.47;;;7.10;;
26478;SDS011;14163;-26.142;27.992;2023-04-03T02:08:52;7.33;;;6.73;;
26478;SDS011;14163;-26.142;27.992;2023-04-03T02:11:22;7.40;;;6.70;;
26478;SDS011;14163;-26.142;27.992;2023-04-03T02:13:51;7.60;;;7.10;;
26478;SDS011;14163;-26.142;27.992;2023-04-03T02:16:20;8.00;;;7.20;;
26478;SDS011;14163;-26.142;27.992;2023-04-03T02:18:49;7.00;;;6.43;;
26478;SDS011;14163;-26.142;27.992;2023-04-03T02:21:19;7.80;;;7.10;;
26478;SDS011;14163;-26.142;27.992;2023-04-03T02:23:49;8.20;;;7.50;;
26478;SDS011;14163;-26.142;27.992;2023-04-03T02:26:18;7.60;;;7.00;;
26478;SDS011;14163;-26.142;27.992;2023-04-03T02:28:48;7.63;;;7.13;;
26478;SDS011;14163;-26.142;27.992;2023-04-03T02:31:17;8.57;;;7.33;;
26478;SDS011;14163;-26.142;27.992;2023-04-03T02:33:46;7.50;;;6.80;;
26478;SDS011;14163;-26.142;27.992;2023-04-03T02:36:16;7.17;;;6.57;;
26478;SDS011;14163;-26.142;27.992;2023-04-03T02:38:45;7.90;;;7.20;;
26478;SDS011;14163;-26.142;27.992;2023-04-03T02:41:16;7.40;;;6.80;;
26478;SDS011;14163;-26.142;27.992;2023-04-03T02:43:46;7.40;;;6.90;;
26478;SDS011;14163;-26.142;27.992;2023-04-03T02:46:15;8.17;;;7.57;;
26478;SDS011;14163;-26.142;27.992;2023-04-03T02:48:45;8.90;;;8.10;;
26478;SDS011;14163;-26.142;27.992;2023-04-03T02:51:14;8.50;;;7.80;;
26478;SDS011;14163;-26.142;27.992;2023-04-03T02:53:43;8.43;;;7.70;;
26478;SDS011;14163;-26.142;27.992;2023-04-03T02:56:12;7.20;;;6.60;;
26478;SDS011;14163;-26.142;27.992;2023-04-03T02:58:44;8.77;;;7.77;;
26478;SDS011;14163;-26.142;27.992;2023-04-03T03:01:13;9.67;;;8.77;;
26478;SDS011;14163;-26.142;27.992;2023-04-03T03:03:43;8.77;;;8.00;;
26478;SDS011;14163;-26.142;27.992;2023-04-03T03:06:13;9.53;;;8.63;;
26478;SDS011;14163;-26.142;27.992;2023-04-03T03:08:43;10.10;;;9.30;;
26478;SDS011;14163;-26.142;27.992;2023-04-03T03:11:12;9.40;;;8.60;;
26478;SDS011;14163;-26.142;27.992;2023-04-03T03:13:42;9.57;;;8.70;;
26478;SDS011;14163;-26.142;27.992;2023-04-03T03:16:13;9.77;;;8.87;;
26478;SDS011;14163;-26.142;27.992;2023-04-03T03:18:42;12.43;;;11.20;;
26478;SDS011;14163;-26.142;27.992;2023-04-03T03:21:11;11.90;;;10.80;;
26478;SDS011;14163;-26.142;27.992;2023-04-03T03:23:43;11.70;;;10.67;;
26478;SDS011;14163;-26.142;27.992;2023-04-03T03:26:12;13.00;;;11.27;;
26478;SDS011;14163;-26.142;27.992;2023-04-03T03:28:41;12.50;;;11.20;;
26478;SDS011;14163;-26.142;27.992;2023-04-03T03:31:12;12.40;;;11.20;;
26478;SDS011;14163;-26.142;27.992;2023-04-03T03:33:41;11.17;;;10.27;;
26478;SDS011;14163;-26.142;27.992;2023-04-03T03:36:10;13.70;;;12.27;;
26478;SDS011;14163;-26.142;27.992;2023-04-03T03:38:39;13.47;;;12.17;;
26478;SDS011;14163;-26.142;27.992;2023-04-03T03:41:09;12.67;;;11.40;;
26478;SDS011;14163;-26.142;27.992;2023-04-03T03:43:38;13.30;;;12.10;;
26478;SDS011;14163;-26.142;27.992;2023-04-03T03:46:09;12.67;;;11.37;;
26478;SDS011;14163;-26.142;27.992;2023-04-03T03:48:38;15.30;;;13.37;;
26478;SDS011;14163;-26.142;27.992;2023-04-03T03:51:07;16.03;;;12.23;;
26478;SDS011;14163;-26.142;27.992;2023-04-03T03:53:36;15.00;;;13.50;;
26478;SDS011;14163;-26.142;27.992;2023-04-03T03:56:06;14.53;;;13.10;;
26478;SDS011;14163;-26.142;27.992;2023-04-03T03:58:35;15.83;;;14.27;;
26478;SDS011;14163;-26.142;27.992;2023-04-03T04:01:05;18.03;;;15.33;;
26478;SDS011;14163;-26.142;27.992;2023-04-03T04:03:36;17.30;;;14.70;;
26478;SDS011;14163;-26.142;27.992;2023-04-03T04:06:06;16.53;;;14.17;;
26478;SDS011;14163;-26.142;27.992;2023-04-03T04:08:35;14.80;;;13.37;;
26478;SDS011;14163;-26.142;27.992;2023-04-03T04:11:04;16.30;;;14.70;;
26478;SDS011;14163;-26.142;27.992;2023-04-03T04:13:34;17.83;;;15.47;;
26478;SDS011;14163;-26.142;27.992;2023-04-03T04:16:04;18.07;;;14.93;;
26478;SDS011;14163;-26.142;27.992;2023-04-03T04:18:36;16.83;;;15.03;;
26478;SDS011;14163;-26.142;27.992;2023-04-03T04:21:05;19.70;;;15.50;;
26478;SDS011;14163;-26.142;27.992;2023-04-03T04:23:34;17.33;;;14.97;;
26478;SDS011;14163;-26.142;27.992;2023-04-03T04:26:03;14.93;;;13.43;;
26478;SDS011;14163;-26.142;27.992;2023-04-03T04:28:32;14.20;;;12.80;;
26478;SDS011;14163;-26.142;27.992;2023-04-03T04:31:02;14.80;;;13.30;;
26478;SDS011;14163;-26.142;27.992;2023-04-03T04:33:31;15.87;;;14.17;;
26478;SDS011;14163;-26.142;27.992;2023-04-03T04:36:02;15.77;;;14.23;;
26478;SDS011;14163;-26.142;27.992;2023-04-03T04:38:31;15.20;;;13.70;;
26478;SDS011;14163;-26.142;27.992;2023-04-03T04:41:01;14.87;;;13.10;;
26478;SDS011;14163;-26.142;27.992;2023-04-03T04:43:30;16.20;;;14.00;;
26478;SDS011;14163;-26.142;27.992;2023-04-03T04:46:03;15.03;;;13.50;;
26478;SDS011;14163;-26.142;27.992;2023-04-03T04:48:34;16.10;;;14.60;;
26478;SDS011;14163;-26.142;27.992;2023-04-03T04:51:05;15.37;;;13.17;;
26478;SDS011;14163;-26.142;27.992;2023-04-03T04:53:34;14.80;;;13.40;;
26478;SDS011;14163;-26.142;27.992;2023-04-03T04:56:04;14.13;;;12.70;;
26478;SDS011;14163;-26.142;27.992;2023-04-03T04:58:34;15.73;;;13.73;;
26478;SDS011;14163;-26.142;27.992;2023-04-03T05:01:04;18.53;;;14.63;;
26478;SDS011;14163;-26.142;27.992;2023-04-03T05:03:34;14.43;;;12.97;;
26478;SDS011;14163;-26.142;27.992;2023-04-03T05:06:06;13.47;;;12.17;;
26478;SDS011;14163;-26.142;27.992;2023-04-03T05:08:35;15.60;;;13.97;;
26478;SDS011;14163;-26.142;27.992;2023-04-03T05:11:04;14.63;;;13.20;;
26478;SDS011;14163;-26.142;27.992;2023-04-03T05:13:34;17.83;;;15.93;;
26478;SDS011;14163;-26.142;27.992;2023-04-03T05:16:03;19.77;;;17.77;;
26478;SDS011;14163;-26.142;27.992;2023-04-03T05:18:33;22.27;;;19.90;;
26478;SDS011;14163;-26.142;27.992;2023-04-03T05:21:02;20.10;;;18.10;;
26478;SDS011;14163;-26.142;27.992;2023-04-03T05:23:33;24.60;;;22.10;;
26478;SDS011;14163;-26.142;27.992;2023-04-03T05:26:02;25.63;;;22.80;;
26478;SDS011;14163;-26.142;27.992;2023-04-03T05:28:31;24.70;;;21.50;;
26478;SDS011;14163;-26.142;27.992;2023-04-03T05:31:01;22.97;;;20.53;;
26478;SDS011;14163;-26.142;27.992;2023-04-03T05:33:32;23.00;;;20.20;;
26478;SDS011;14163;-26.142;27.992;2023-04-03T05:36:02;24.20;;;20.77;;
26478;SDS011;14163;-26.142;27.992;2023-04-03T05:38:33;23.67;;;19.00;;
26478;SDS011;14163;-26.142;27.992;2023-04-03T05:41:02;21.37;;;19.10;;
26478;SDS011;14163;-26.142;27.992;2023-04-03T05:43:31;21.90;;;19.73;;
26478;SDS011;14163;-26.142;27.992;2023-04-03T05:46:03;23.30;;;20.83;;
26478;SDS011;14163;-26.142;27.992;2023-04-03T05:48:34;24.57;;;22.07;;
26478;SDS011;14163;-26.142;27.992;2023-04-03T05:51:04;26.93;;;20.50;;
26478;SDS011;14163;-26.142;27.992;2023-04-03T05:53:35;23.57;;;21.00;;
26478;SDS011;14163;-26.142;27.992;2023-04-03T05:56:05;22.33;;;20.03;;
26478;SDS011;14163;-26.142;27.992;2023-04-03T05:58:34;20.83;;;18.57;;
26478;SDS011;14163;-26.142;27.992;2023-04-03T06:01:04;23.50;;;19.50;;
26478;SDS011;14163;-26.142;27.992;2023-04-03T06:03:33;21.27;;;19.13;;
26478;SDS011;14163;-26.142;27.992;2023-04-03T06:06:03;23.80;;;20.60;;
26478;SDS011;14163;-26.142;27.992;2023-04-03T06:08:35;19.63;;;17.73;;
26478;SDS011;14163;-26.142;27.992;2023-04-03T06:11:04;19.77;;;17.67;;
26478;SDS011;14163;-26.142;27.992;2023-04-03T06:13:34;20.30;;;18.30;;
26478;SDS011;14163;-26.142;27.992;2023-04-03T06:16:04;20.90;;;18.90;;
26478;SDS011;14163;-26.142;27.992;2023-04-03T06:18:35;17.10;;;15.40;;
26478;SDS011;14163;-26.142;27.992;2023-04-03T06:21:04;19.67;;;17.67;;
26478;SDS011;14163;-26.142;27.992;2023-04-03T06:23:35;15.53;;;14.03;;
26478;SDS011;14163;-26.142;27.992;2023-04-03T06:26:04;13.60;;;12.20;;
26478;SDS011;14163;-26.142;27.992;2023-04-03T06:28:33;12.93;;;11.73;;
26478;SDS011;14163;-26.142;27.992;2023-04-03T06:31:03;14.40;;;13.00;;
26478;SDS011;14163;-26.142;27.992;2023-04-03T06:33:32;13.20;;;11.97;;
26478;SDS011;14163;-26.142;27.992;2023-04-03T06:36:03;13.40;;;12.10;;
26478;SDS011;14163;-26.142;27.992;2023-04-03T06:38:35;12.93;;;11.90;;
26478;SDS011;14163;-26.142;27.992;2023-04-03T06:41:04;16.80;;;13.07;;
26478;SDS011;14163;-26.142;27.992;2023-04-03T06:43:33;14.40;;;13.10;;
26478;SDS011;14163;-26.142;27.992;2023-04-03T06:46:02;14.27;;;12.77;;
26478;SDS011;14163;-26.142;27.992;2023-04-03T06:48:32;14.60;;;12.77;;
26478;SDS011;14163;-26.142;27.992;2023-04-03T06:51:01;14.00;;;12.73;;
26478;SDS011;14163;-26.142;27.992;2023-04-03T06:53:31;13.77;;;12.57;;
26478;SDS011;14163;-26.142;27.992;2023-04-03T06:56:02;13.07;;;11.73;;
26478;SDS011;14163;-26.142;27.992;2023-04-03T06:58:31;13.97;;;12.60;;
26478;SDS011;14163;-26.142;27.992;2023-04-03T07:01:00;14.57;;;13.07;;
26478;SDS011;14163;-26.142;27.992;2023-04-03T07:03:30;15.67;;;14.00;;
26478;SDS011;14163;-26.142;27.992;2023-04-03T07:05:59;14.23;;;12.80;;
26478;SDS011;14163;-26.142;27.992;2023-04-03T07:08:28;14.33;;;12.07;;
26478;SDS011;14163;-26.142;27.992;2023-04-03T07:10:57;14.33;;;12.43;;
26478;SDS011;14163;-26.142;27.992;2023-04-03T07:13:28;13.70;;;12.50;;
26478;SDS011;14163;-26.142;27.992;2023-04-03T07:15:58;14.37;;;12.97;;
26478;SDS011;14163;-26.142;27.992;2023-04-03T07:18:27;14.50;;;13.00;;
26478;SDS011;14163;-26.142;27.992;2023-04-03T07:20:57;15.50;;;13.90;;
26478;SDS011;14163;-26.142;27.992;2023-04-03T07:23:26;13.20;;;12.00;;
26478;SDS011;14163;-26.142;27.992;2023-04-03T07:25:55;14.30;;;12.80;;
26478;SDS011;14163;-26.142;27.992;2023-04-03T07:28:24;14.53;;;12.90;;
26478;SDS011;14163;-26.142;27.992;2023-04-03T07:30:59;14.50;;;13.20;;
26478;SDS011;14163;-26.142;27.992;2023-04-03T07:33:30;14.47;;;13.07;;
26478;SDS011;14163;-26.142;27.992;2023-04-03T07:35:59;14.00;;;12.70;;
26478;SDS011;14163;-26.142;27.992;2023-04-03T07:38:28;15.87;;;13.13;;
26478;SDS011;14163;-26.142;27.992;2023-04-03T07:40:58;14.07;;;12.67;;
26478;SDS011;14163;-26.142;27.992;2023-04-03T07:43:27;15.13;;;13.43;;
26478;SDS011;14163;-26.142;27.992;2023-04-03T07:45:58;13.67;;;12.37;;
26478;SDS011;14163;-26.142;27.992;2023-04-03T07:48:28;14.47;;;13.20;;
26478;SDS011;14163;-26.142;27.992;2023-04-03T07:50:59;13.67;;;12.27;;
26478;SDS011;14163;-26.142;27.992;2023-04-03T07:53:29;16.43;;;13.70;;
26478;SDS011;14163;-26.142;27.992;2023-04-03T07:55:59;15.47;;;13.87;;
26478;SDS011;14163;-26.142;27.992;2023-04-03T07:58:28;15.23;;;13.83;;
26478;SDS011;14163;-26.142;27.992;2023-04-03T08:01:00;16.27;;;14.67;;
26478;SDS011;14163;-26.142;27.992;2023-04-03T08:03:29;20.20;;;15.33;;
26478;SDS011;14163;-26.142;27.992;2023-04-03T08:06:01;16.00;;;13.93;;
26478;SDS011;14163;-26.142;27.992;2023-04-03T10:17:05;23.97;;;21.67;;
26478;SDS011;14163;-26.142;27.992;2023-04-03T10:19:44;25.57;;;23.17;;
26478;SDS011;14163;-26.142;27.992;2023-04-03T10:22:20;22.40;;;20.50;;
26478;SDS011;14163;-26.142;27.992;2023-04-03T10:25:01;21.23;;;19.37;;
26478;SDS011;14163;-26.142;27.992;2023-04-03T10:27:46;20.10;;;18.40;;
26478;SDS011;14163;-26.142;27.992;2023-04-03T10:30:30;21.77;;;19.73;;
26478;SDS011;14163;-26.142;27.992;2023-04-03T10:36:15;20.43;;;18.53;;
26478;SDS011;14163;-26.142;27.992;2023-04-03T10:38:55;21.23;;;19.17;;
26478;SDS011;14163;-26.142;27.992;2023-04-03T10:41:32;18.40;;;16.80;;
26478;SDS011;14163;-26.142;27.992;2023-04-03T10:44:14;18.73;;;17.23;;
26478;SDS011;14163;-26.142;27.992;2023-04-03T10:46:49;17.97;;;16.57;;
26478;SDS011;14163;-26.142;27.992;2023-04-03T10:49:30;17.83;;;16.43;;
26478;SDS011;14163;-26.142;27.992;2023-04-03T10:52:16;17.67;;;16.47;;
26478;SDS011;14163;-26.142;27.992;2023-04-03T10:54:52;16.10;;;14.90;;
26478;SDS011;14163;-26.142;27.992;2023-04-03T10:57:30;17.63;;;16.20;;
26478;SDS011;14163;-26.142;27.992;2023-04-03T10:59:59;18.33;;;16.90;;
26478;SDS011;14163;-26.142;27.992;2023-04-03T11:02:35;19.50;;;18.00;;
26478;SDS011;14163;-26.142;27.992;2023-04-03T11:05:15;19.37;;;17.77;;
26478;SDS011;14163;-26.142;27.992;2023-04-03T11:07:51;18.60;;;17.00;;
26478;SDS011;14163;-26.142;27.992;2023-04-03T11:10:25;17.43;;;16.03;;
26478;SDS011;14163;-26.142;27.992;2023-04-03T11:13:06;17.67;;;16.23;;
26478;SDS011;14163;-26.142;27.992;2023-04-03T11:15:41;19.17;;;17.47;;
26478;SDS011;14163;-26.142;27.992;2023-04-03T11:18:13;18.93;;;17.13;;
26478;SDS011;14163;-26.142;27.992;2023-04-03T11:20:48;19.37;;;17.13;;
26478;SDS011;14163;-26.142;27.992;2023-04-03T11:23:28;19.03;;;17.43;;
26478;SDS011;14163;-26.142;27.992;2023-04-03T11:26:04;18.30;;;16.40;;
26478;SDS011;14163;-26.142;27.992;2023-04-03T11:28:37;18.60;;;16.67;;
26478;SDS011;14163;-26.142;27.992;2023-04-03T11:31:10;16.03;;;14.77;;
26478;SDS011;14163;-26.142;27.992;2023-04-03T11:33:56;16.20;;;14.90;;
26478;SDS011;14163;-26.142;27.992;2023-04-03T11:36:34;14.33;;;12.93;;
26478;SDS011;14163;-26.142;27.992;2023-04-03T11:39:15;15.20;;;14.00;;
26478;SDS011;14163;-26.142;27.992;2023-04-03T11:41:50;15.27;;;13.77;;
26478;SDS011;14163;-26.142;27.992;2023-04-03T11:44:28;14.47;;;13.37;;
26478;SDS011;14163;-26.142;27.992;2023-04-03T11:47:04;15.13;;;13.83;;
26478;SDS011;14163;-26.142;27.992;2023-04-03T12:01:51;14.73;;;13.47;;
26478;SDS011;14163;-26.142;27.992;2023-04-03T12:04:22;14.33;;;13.03;;
26478;SDS011;14163;-26.142;27.992;2023-04-03T12:07:00;13.67;;;12.47;;
26478;SDS011;14163;-26.142;27.992;2023-04-03T12:09:57;13.40;;;12.50;;
26478;SDS011;14163;-26.142;27.992;2023-04-03T12:12:31;13.97;;;12.97;;
26478;SDS011;14163;-26.142;27.992;2023-04-03T12:15:25;15.67;;;14.47;;
26478;SDS011;14163;-26.142;27.992;2023-04-03T12:21:17;13.00;;;12.00;;
26478;SDS011;14163;-26.142;27.992;2023-04-03T12:23:58;13.47;;;12.37;;
26478;SDS011;14163;-26.142;27.992;2023-04-03T12:26:35;14.90;;;13.50;;
26478;SDS011;14163;-26.142;27.992;2023-04-03T12:29:13;14.40;;;13.20;;
26478;SDS011;14163;-26.142;27.992;2023-04-03T12:31:48;13.30;;;12.20;;
26478;SDS011;14163;-26.142;27.992;2023-04-03T12:34:38;14.60;;;13.20;;
26478;SDS011;14163;-26.142;27.992;2023-04-03T12:37:22;13.30;;;12.10;;
26478;SDS011;14163;-26.142;27.992;2023-04-03T12:40:09;13.10;;;12.17;;
26478;SDS011;14163;-26.142;27.992;2023-04-03T12:45:48;13.30;;;12.30;;
26478;SDS011;14163;-26.142;27.992;2023-04-03T12:48:22;14.90;;;13.60;;
26478;SDS011;14163;-26.142;27.992;2023-04-03T12:50:54;13.70;;;12.30;;
26478;SDS011;14163;-26.142;27.992;2023-04-03T12:53:25;14.50;;;13.20;;
26478;SDS011;14163;-26.142;27.992;2023-04-03T12:55:56;14.80;;;13.40;;
26478;SDS011;14163;-26.142;27.992;2023-04-03T12:58:46;14.40;;;13.33;;
26478;SDS011;14163;-26.142;27.992;2023-04-03T13:01:18;13.87;;;12.77;;
26478;SDS011;14163;-26.142;27.992;2023-04-03T13:03:49;14.47;;;13.37;;
26478;SDS011;14163;-26.142;27.992;2023-04-03T13:06:21;14.73;;;13.53;;
26478;SDS011;14163;-26.142;27.992;2023-04-03T13:08:54;14.63;;;13.37;;
26478;SDS011;14163;-26.142;27.992;2023-04-03T13:11:25;15.67;;;14.27;;
26478;SDS011;14163;-26.142;27.992;2023-04-03T13:13:58;12.97;;;11.97;;
26478;SDS011;14163;-26.142;27.992;2023-04-03T13:16:31;14.93;;;13.67;;
26478;SDS011;14163;-26.142;27.992;2023-04-03T13:19:01;14.57;;;13.30;;
26478;SDS011;14163;-26.142;27.992;2023-04-03T13:21:30;14.13;;;12.93;;
26478;SDS011;14163;-26.142;27.992;2023-04-03T13:24:01;15.10;;;13.83;;
26478;SDS011;14163;-26.142;27.992;2023-04-03T13:26:32;14.97;;;13.70;;
26478;SDS011;14163;-26.142;27.992;2023-04-03T13:29:03;14.73;;;12.87;;
26478;SDS011;14163;-26.142;27.992;2023-04-03T13:31:51;13.70;;;12.60;;
26478;SDS011;14163;-26.142;27.992;2023-04-03T13:34:22;13.20;;;12.17;;
26478;SDS011;14163;-26.142;27.992;2023-04-03T13:36:56;14.00;;;12.70;;
26478;SDS011;14163;-26.142;27.992;2023-04-03T13:39:27;13.77;;;12.57;;
26478;SDS011;14163;-26.142;27.992;2023-04-03T13:41:58;13.80;;;12.80;;
26478;SDS011;14163;-26.142;27.992;2023-04-03T13:44:31;13.30;;;12.20;;
26478;SDS011;14163;-26.142;27.992;2023-04-03T13:47:15;13.20;;;12.10;;
26478;SDS011;14163;-26.142;27.992;2023-04-03T13:49:58;14.43;;;13.13;;
26478;SDS011;14163;-26.142;27.992;2023-04-03T13:52:30;12.70;;;11.70;;
26478;SDS011;14163;-26.142;27.992;2023-04-03T13:55:02;13.23;;;11.97;;
26478;SDS011;14163;-26.142;27.992;2023-04-03T13:57:53;13.27;;;12.17;;
26478;SDS011;14163;-26.142;27.992;2023-04-03T14:00:30;13.33;;;12.23;;
26478;SDS011;14163;-26.142;27.992;2023-04-03T14:03:07;12.90;;;11.80;;
26478;SDS011;14163;-26.142;27.992;2023-04-03T14:05:41;15.10;;;13.70;;
26478;SDS011;14163;-26.142;27.992;2023-04-03T14:08:11;13.37;;;12.23;;
26478;SDS011;14163;-26.142;27.992;2023-04-03T14:10:40;13.73;;;12.53;;
26478;SDS011;14163;-26.142;27.992;2023-04-03T14:13:11;14.67;;;13.53;;
26478;SDS011;14163;-26.142;27.992;2023-04-03T14:15:41;15.30;;;14.00;;
26478;SDS011;14163;-26.142;27.992;2023-04-03T14:18:13;16.77;;;15.37;;
26478;SDS011;14163;-26.142;27.992;2023-04-03T14:20:44;16.10;;;14.70;;
26478;SDS011;14163;-26.142;27.992;2023-04-03T14:23:13;15.63;;;14.33;;
26478;SDS011;14163;-26.142;27.992;2023-04-03T14:25:42;17.43;;;15.70;;
26478;SDS011;14163;-26.142;27.992;2023-04-03T14:28:14;17.30;;;15.77;;
26478;SDS011;14163;-26.142;27.992;2023-04-03T14:30:47;17.27;;;15.77;;
26478;SDS011;14163;-26.142;27.992;2023-04-03T14:33:19;16.30;;;15.10;;
26478;SDS011;14163;-26.142;27.992;2023-04-03T14:35:49;16.47;;;15.17;;
26478;SDS011;14163;-26.142;27.992;2023-04-03T14:38:23;17.20;;;15.50;;
26478;SDS011;14163;-26.142;27.992;2023-04-03T14:40:54;18.60;;;17.00;;
26478;SDS011;14163;-26.142;27.992;2023-04-03T14:43:23;15.90;;;14.70;;
26478;SDS011;14163;-26.142;27.992;2023-04-03T14:45:52;17.83;;;16.17;;
26478;SDS011;14163;-26.142;27.992;2023-04-03T14:48:25;17.27;;;15.77;;
26478;SDS011;14163;-26.142;27.992;2023-04-03T14:50:56;18.57;;;16.97;;
26478;SDS011;14163;-26.142;27.992;2023-04-03T14:53:25;20.00;;;18.10;;
26478;SDS011;14163;-26.142;27.992;2023-04-03T14:55:55;18.80;;;17.10;;
26478;SDS011;14163;-26.142;27.992;2023-04-03T14:58:24;17.23;;;15.87;;
26478;SDS011;14163;-26.142;27.992;2023-04-03T15:00:54;18.83;;;17.23;;
26478;SDS011;14163;-26.142;27.992;2023-04-03T15:03:25;18.50;;;17.00;;
26478;SDS011;14163;-26.142;27.992;2023-04-03T15:05:54;18.40;;;16.80;;
26478;SDS011;14163;-26.142;27.992;2023-04-03T15:08:24;18.67;;;17.13;;
26478;SDS011;14163;-26.142;27.992;2023-04-03T15:10:56;19.63;;;17.70;;
26478;SDS011;14163;-26.142;27.992;2023-04-03T15:13:26;19.67;;;18.00;;
26478;SDS011;14163;-26.142;27.992;2023-04-03T15:15:55;21.13;;;19.23;;
26478;SDS011;14163;-26.142;27.992;2023-04-03T15:18:27;19.90;;;18.03;;
26478;SDS011;14163;-26.142;27.992;2023-04-03T15:20:58;20.20;;;18.30;;
26478;SDS011;14163;-26.142;27.992;2023-04-03T15:23:27;19.80;;;18.10;;
26478;SDS011;14163;-26.142;27.992;2023-04-03T15:25:58;19.33;;;17.53;;
26478;SDS011;14163;-26.142;27.992;2023-04-03T15:28:27;20.03;;;18.23;;
26478;SDS011;14163;-26.142;27.992;2023-04-03T15:30:58;20.30;;;18.60;;
26478;SDS011;14163;-26.142;27.992;2023-04-03T15:33:29;20.13;;;18.30;;
26478;SDS011;14163;-26.142;27.992;2023-04-03T15:35:59;18.90;;;17.30;;
26478;SDS011;14163;-26.142;27.992;2023-04-03T15:38:28;19.63;;;18.03;;
26478;SDS011;14163;-26.142;27.992;2023-04-03T15:40:58;19.60;;;17.90;;
26478;SDS011;14163;-26.142;27.992;2023-04-03T15:43:27;22.00;;;19.77;;
26478;SDS011;14163;-26.142;27.992;2023-04-03T15:45:56;21.00;;;19.10;;
26478;SDS011;14163;-26.142;27.992;2023-04-03T15:48:27;20.03;;;18.30;;
26478;SDS011;14163;-26.142;27.992;2023-04-03T15:50:59;20.90;;;19.00;;
26478;SDS011;14163;-26.142;27.992;2023-04-03T15:53:28;19.90;;;18.30;;
26478;SDS011;14163;-26.142;27.992;2023-04-03T15:55:57;20.50;;;18.73;;
26478;SDS011;14163;-26.142;27.992;2023-04-03T15:58:27;22.43;;;20.33;;
26478;SDS011;14163;-26.142;27.992;2023-04-03T18:03:53;5.23;;;4.80;;
26478;SDS011;14163;-26.142;27.992;2023-04-03T18:06:25;6.10;;;4.60;;
26478;SDS011;14163;-26.142;27.992;2023-04-03T18:08:57;4.00;;;3.70;;
26478;SDS011;14163;-26.142;27.992;2023-04-03T18:11:31;3.77;;;3.37;;
26478;SDS011;14163;-26.142;27.992;2023-04-03T18:14:00;6.47;;;3.10;;
26478;SDS011;14163;-26.142;27.992;2023-04-03T18:16:30;5.83;;;3.10;;
26478;SDS011;14163;-26.142;27.992;2023-04-03T18:19:02;3.63;;;2.73;;
26478;SDS011;14163;-26.142;27.992;2023-04-03T18:21:33;5.47;;;2.77;;
26478;SDS011;14163;-26.142;27.992;2023-04-03T18:24:03;2.63;;;2.40;;
26478;SDS011;14163;-26.142;27.992;2023-04-03T18:26:57;3.20;;;2.87;;
26478;SDS011;14163;-26.142;27.992;2023-04-03T18:29:34;2.87;;;2.67;;
26478;SDS011;14163;-26.142;27.992;2023-04-03T18:32:05;3.13;;;2.83;;
26478;SDS011;14163;-26.142;27.992;2023-04-03T18:34:51;2.50;;;2.30;;
26478;SDS011;14163;-26.142;27.992;2023-04-03T18:37:20;4.30;;;2.60;;
26478;SDS011;14163;-26.142;27.992;2023-04-03T18:39:51;3.87;;;3.33;;
26478;SDS011;14163;-26.142;27.992;2023-04-03T18:42:21;4.23;;;2.93;;
26478;SDS011;14163;-26.142;27.992;2023-04-03T18:44:52;2.83;;;2.63;;
26478;SDS011;14163;-26.142;27.992;2023-04-03T18:47:24;2.00;;;1.80;;
26478;SDS011;14163;-26.142;27.992;2023-04-03T18:49:57;2.87;;;2.63;;
26478;SDS011;14163;-26.142;27.992;2023-04-03T18:52:26;10.30;;;4.30;;
26478;SDS011;14163;-26.142;27.992;2023-04-03T18:54:56;7.67;;;3.93;;
26478;SDS011;14163;-26.142;27.992;2023-04-03T18:57:25;12.57;;;4.97;;
26478;SDS011;14163;-26.142;27.992;2023-04-03T18:59:55;4.87;;;3.70;;
26478;SDS011;14163;-26.142;27.992;2023-04-03T19:02:24;4.23;;;3.83;;
26478;SDS011;14163;-26.142;27.992;2023-04-03T19:04:53;7.67;;;3.63;;
26478;SDS011;14163;-26.142;27.992;2023-04-03T19:07:24;6.57;;;4.17;;
26478;SDS011;14163;-26.142;27.992;2023-04-03T19:09:54;7.13;;;4.00;;
26478;SDS011;14163;-26.142;27.992;2023-04-03T19:12:23;4.57;;;4.17;;
26478;SDS011;14163;-26.142;27.992;2023-04-03T19:14:53;7.63;;;4.27;;
26478;SDS011;14163;-26.142;27.992;2023-04-03T19:17:22;8.37;;;4.30;;
26478;SDS011;14163;-26.142;27.992;2023-04-03T19:19:53;5.57;;;3.70;;
26478;SDS011;14163;-26.142;27.992;2023-04-03T19:22:26;6.20;;;4.37;;
26478;SDS011;14163;-26.142;27.992;2023-04-03T19:24:55;6.40;;;4.47;;
26478;SDS011;14163;-26.142;27.992;2023-04-03T19:27:24;4.87;;;4.20;;
26478;SDS011;14163;-26.142;27.992;2023-04-03T19:29:54;12.43;;;4.90;;
26478;SDS011;14163;-26.142;27.992;2023-04-03T19:32:23;6.07;;;4.80;;
26478;SDS011;14163;-26.142;27.992;2023-04-03T19:34:53;5.80;;;4.83;;
26478;SDS011;14163;-26.142;27.992;2023-04-03T19:37:26;8.43;;;4.70;;
26478;SDS011;14163;-26.142;27.992;2023-04-03T19:39:55;8.13;;;5.13;;
26478;SDS011;14163;-26.142;27.992;2023-04-03T19:42:26;5.20;;;4.70;;
26478;SDS011;14163;-26.142;27.992;2023-04-03T19:44:56;6.50;;;4.93;;
26478;SDS011;14163;-26.142;27.992;2023-04-03T19:47:25;5.40;;;4.13;;
26478;SDS011;14163;-26.142;27.992;2023-04-03T19:49:55;8.03;;;5.43;;
26478;SDS011;14163;-26.142;27.992;2023-04-03T19:52:24;7.40;;;4.73;;
26478;SDS011;14163;-26.142;27.992;2023-04-03T19:54:55;4.73;;;4.33;;
26478;SDS011;14163;-26.142;27.992;2023-04-03T19:57:24;8.00;;;4.90;;
26478;SDS011;14163;-26.142;27.992;2023-04-03T19:59:53;5.13;;;4.63;;
26478;SDS011;14163;-26.142;27.992;2023-04-03T20:02:23;9.73;;;4.40;;
26478;SDS011;14163;-26.142;27.992;2023-04-03T20:04:52;5.47;;;4.97;;
26478;SDS011;14163;-26.142;27.992;2023-04-03T20:07:21;5.20;;;4.70;;
26478;SDS011;14163;-26.142;27.992;2023-04-03T20:09:52;5.17;;;4.60;;
26478;SDS011;14163;-26.142;27.992;2023-04-03T20:12:22;7.17;;;5.10;;
26478;SDS011;14163;-26.142;27.992;2023-04-03T20:14:52;5.33;;;4.77;;
26478;SDS011;14163;-26.142;27.992;2023-04-03T20:17:23;7.33;;;5.00;;
26478;SDS011;14163;-26.142;27.992;2023-04-03T20:19:52;4.60;;;4.20;;
26478;SDS011;14163;-26.142;27.992;2023-04-03T20:22:26;5.43;;;4.73;;
26478;SDS011;14163;-26.142;27.992;2023-04-03T20:24:58;5.23;;;4.50;;
26478;SDS011;14163;-26.142;27.992;2023-04-03T20:27:28;5.27;;;4.87;;
26478;SDS011;14163;-26.142;27.992;2023-04-03T20:29:58;7.00;;;5.07;;
26478;SDS011;14163;-26.142;27.992;2023-04-03T20:32:27;6.40;;;5.80;;
26478;SDS011;14163;-26.142;27.992;2023-04-03T20:34:56;5.57;;;5.17;;
26478;SDS011;14163;-26.142;27.992;2023-04-03T20:37:25;8.03;;;5.33;;
26478;SDS011;14163;-26.142;27.992;2023-04-03T20:39:57;9.10;;;5.10;;
26478;SDS011;14163;-26.142;27.992;2023-04-03T20:42:27;5.40;;;4.57;;
26478;SDS011;14163;-26.142;27.992;2023-04-03T20:44:56;7.73;;;5.57;;
26478;SDS011;14163;-26.142;27.992;2023-04-03T20:47:25;5.70;;;4.97;;
26478;SDS011;14163;-26.142;27.992;2023-04-03T20:49:54;6.37;;;5.33;;
26478;SDS011;14163;-26.142;27.992;2023-04-03T20:52:24;6.27;;;5.70;;
26478;SDS011;14163;-26.142;27.992;2023-04-03T20:54:53;9.03;;;5.73;;
26478;SDS011;14163;-26.142;27.992;2023-04-03T20:57:24;7.33;;;6.10;;
26478;SDS011;14163;-26.142;27.992;2023-04-03T20:59:53;6.93;;;5.77;;
26478;SDS011;14163;-26.142;27.992;2023-04-03T21:02:22;7.83;;;5.77;;
26478;SDS011;14163;-26.142;27.992;2023-04-03T21:04:55;6.57;;;5.90;;
26478;SDS011;14163;-26.142;27.992;2023-04-03T21:19:18;6.07;;;5.57;;